Wayland, IA (52654)

3:16 AM CST on February 14, 2016 (GMT -0600)
Washington Municipal | | Change Station
CLOSE
Current Station
Airport
Location: Washington,
Elevation: 755 ft
Nearby Weather Stations
Active Advisory: Winter Weather Advisory

Elev 755 ft 41.28 °N, 91.67 °W | Updated 21 minutes ago

Overcast
Overcast
16 °F
Feels Like 0 °F
N
16
Wind Variable Wind from ESE

Today
High -- | Low -- °F
--% Chance of Precip.
Yesterday
High -- | Low -- °F
Precip. -- in
Pressure 30.29 in
Visibility 5.0 miles
Clouds Mostly Cloudy 3200 ft
Mostly Cloudy 4100 ft
Overcast 5500 ft
Windchill 0 °F
Dew Point 12 °F
Humidity 86%
Rainfall 0.00 in
Snow Depth Not available.
7:03 AM 5:39 PM
Waxing Crescent, 39% visible
METAR KAWG 140855Z AUTO 12014KT 5SM BR BKN032 BKN041 OVC055 M09/M11 A3029 RMK AO2
Pressure 30.29 in
Visibility 5.0 miles
Clouds Mostly Cloudy 3200 ft
Mostly Cloudy 4100 ft
Overcast 5500 ft
Windchill 0 °F
Dew Point 12 °F
Humidity 86%
Rainfall 0.00 in
Snow Depth Not available.
7:03 AM 5:39 PM
Waxing Crescent, 39% visible
METAR KAWG 140855Z AUTO 12014KT 5SM BR BKN032 BKN041 OVC055 M09/M11 A3029 RMK AO2

10-Day Weather Forecast

Almanac

Astronomy

Feb. 14, 2016 Rise Set
Actual Time
Civil Twilight
Nautical Twilight
Astronomical Twilight
Moon
Length of Visible Light
Length of Day
Tomorrow will be .
, % of the Moon is Illuminated

Today's Extremes

State Highs State Lows

Community

WunderPhotos

Upload Photos

1,892,763 photos uploaded!

WunderBlog® & News

Nearby

Air Quality

  Air Quality AQ Index Pollutant
Not available.

Snow Depth

Station Depth Elevation

Earthquake Activity

City Distance Mag. Time & Date
Minimum magnitude displayed is 2.5.

Coastal Water Temperatures

Place Temperature

Stations

Nearby Weather Stations

Station Location Temp. Windchill Dew Point Humidity Wind Precip. Elev Updated Type
                   

Watches & Warnings

Winter Weather Advisory
Issued: 7:52 PM CST Feb. 13, 2016 – National Weather Service

... Winter Weather Advisory remains in effect until 6 PM CST
Sunday...

* timing... late evening and continuing through Sunday.

* Snow accumulations... 3 to 5 inches.

* Wind... southeast 5 to 15 mph with gusts up to 25 mph overnight
and much of Sunday morning.

* Visibilities... less than a mile in the heavier snow at times.

* Impacts... snow covered and hazardous roads and low visibility
in heavier snowfall.

Precautionary/preparedness actions...

A Winter Weather Advisory for snow means that periods of snow
will cause travel difficulties. Be prepared for slick... snow
covered roads and limited visibilities... and be careful while
driving.